sensor_id;sensor_type;location;lat;lon;timestamp;temperature;humidity
5842;DHT22;2947;52.276;9.946;2023-12-20T00:01:38;7.70;99.90
5842;DHT22;2947;52.276;9.946;2023-12-20T00:04:05;7.80;99.90
5842;DHT22;2947;52.276;9.946;2023-12-20T00:06:31;7.70;99.90
5842;DHT22;2947;52.276;9.946;2023-12-20T00:08:57;7.70;99.90
5842;DHT22;2947;52.276;9.946;2023-12-20T00:11:25;7.70;99.90
5842;DHT22;2947;52.276;9.946;2023-12-20T00:13:51;7.80;99.90
5842;DHT22;2947;52.276;9.946;2023-12-20T00:16:17;7.80;99.90
5842;DHT22;2947;52.276;9.946;2023-12-20T00:18:42;7.70;99.90
5842;DHT22;2947;52.276;9.946;2023-12-20T00:21:08;7.70;99.90
5842;DHT22;2947;52.276;9.946;2023-12-20T00:23:34;7.70;99.90
5842;DHT22;2947;52.276;9.946;2023-12-20T00:26:00;7.70;99.90
5842;DHT22;2947;52.276;9.946;2023-12-20T00:28:25;7.70;99.90
5842;DHT22;2947;52.276;9.946;2023-12-20T00:30:51;7.60;99.90
5842;DHT22;2947;52.276;9.946;2023-12-20T00:33:17;7.50;99.90
5842;DHT22;2947;52.276;9.946;2023-12-20T00:35:42;7.50;99.90
5842;DHT22;2947;52.276;9.946;2023-12-20T00:38:08;7.50;99.90
5842;DHT22;2947;52.276;9.946;2023-12-20T00:40:35;7.40;99.90
5842;DHT22;2947;52.276;9.946;2023-12-20T00:43:00;7.40;99.90
5842;DHT22;2947;52.276;9.946;2023-12-20T00:45:26;7.40;99.90
5842;DHT22;2947;52.276;9.946;2023-12-20T00:47:52;7.30;99.90
5842;DHT22;2947;52.276;9.946;2023-12-20T00:50:18;7.30;99.90
5842;DHT22;2947;52.276;9.946;2023-12-20T00:52:43;7.30;99.90
5842;DHT22;2947;52.276;9.946;2023-12-20T00:55:09;7.20;99.90
5842;DHT22;2947;52.276;9.946;2023-12-20T00:57:35;7.30;99.90
5842;DHT22;2947;52.276;9.946;2023-12-20T01:00:01;7.20;99.90
5842;DHT22;2947;52.276;9.946;2023-12-20T01:02:27;7.10;99.90
5842;DHT22;2947;52.276;9.946;2023-12-20T01:04:52;7.20;99.90
5842;DHT22;2947;52.276;9.946;2023-12-20T01:07:18;7.20;99.90
5842;DHT22;2947;52.276;9.946;2023-12-20T01:09:44;7.20;99.90
5842;DHT22;2947;52.276;9.946;2023-12-20T01:12:10;7.00;99.90
5842;DHT22;2947;52.276;9.946;2023-12-20T01:14:35;7.00;99.90
5842;DHT22;2947;52.276;9.946;2023-12-20T01:17:01;7.00;99.90
5842;DHT22;2947;52.276;9.946;2023-12-20T01:19:27;7.00;99.90
5842;DHT22;2947;52.276;9.946;2023-12-20T01:21:53;7.00;99.90
5842;DHT22;2947;52.276;9.946;2023-12-20T01:24:19;7.00;99.90
5842;DHT22;2947;52.276;9.946;2023-12-20T01:26:45;6.90;99.90
5842;DHT22;2947;52.276;9.946;2023-12-20T01:29:10;6.90;99.90
5842;DHT22;2947;52.276;9.946;2023-12-20T01:31:36;6.80;99.90
5842;DHT22;2947;52.276;9.946;2023-12-20T01:34:02;6.80;99.90
5842;DHT22;2947;52.276;9.946;2023-12-20T01:36:28;6.80;99.90
5842;DHT22;2947;52.276;9.946;2023-12-20T01:38:54;6.80;99.90
5842;DHT22;2947;52.276;9.946;2023-12-20T01:41:20;6.80;99.90
5842;DHT22;2947;52.276;9.946;2023-12-20T01:43:45;6.80;99.90
5842;DHT22;2947;52.276;9.946;2023-12-20T01:46:12;6.80;99.90
5842;DHT22;2947;52.276;9.946;2023-12-20T01:48:37;7.10;99.90
5842;DHT22;2947;52.276;9.946;2023-12-20T01:51:04;6.80;99.90
5842;DHT22;2947;52.276;9.946;2023-12-20T01:53:30;6.80;99.90
5842;DHT22;2947;52.276;9.946;2023-12-20T01:55:58;6.70;99.90
5842;DHT22;2947;52.276;9.946;2023-12-20T01:58:24;6.70;99.90
5842;DHT22;2947;52.276;9.946;2023-12-20T02:06:03;6.70;99.90
5842;DHT22;2947;52.276;9.946;2023-12-20T02:08:30;6.60;99.90
5842;DHT22;2947;52.276;9.946;2023-12-20T02:10:56;6.60;99.90
5842;DHT22;2947;52.276;9.946;2023-12-20T02:13:22;6.60;99.90
5842;DHT22;2947;52.276;9.946;2023-12-20T02:15:49;7.00;99.90
5842;DHT22;2947;52.276;9.946;2023-12-20T02:18:19;6.50;99.90
5842;DHT22;2947;52.276;9.946;2023-12-20T02:20:45;6.50;99.90
5842;DHT22;2947;52.276;9.946;2023-12-20T02:23:10;6.50;99.90
5842;DHT22;2947;52.276;9.946;2023-12-20T02:25:36;6.50;99.90
5842;DHT22;2947;52.276;9.946;2023-12-20T02:28:03;6.40;99.90
5842;DHT22;2947;52.276;9.946;2023-12-20T02:30:30;6.40;99.90
5842;DHT22;2947;52.276;9.946;2023-12-20T02:32:56;6.40;99.90
5842;DHT22;2947;52.276;9.946;2023-12-20T02:35:21;6.30;99.90
5842;DHT22;2947;52.276;9.946;2023-12-20T02:37:50;6.30;99.90
5842;DHT22;2947;52.276;9.946;2023-12-20T02:40:16;6.20;99.90
5842;DHT22;2947;52.276;9.946;2023-12-20T02:42:42;6.20;99.90
5842;DHT22;2947;52.276;9.946;2023-12-20T02:45:08;6.10;99.90
5842;DHT22;2947;52.276;9.946;2023-12-20T02:47:34;6.10;99.90
5842;DHT22;2947;52.276;9.946;2023-12-20T02:50:00;6.10;99.90
5842;DHT22;2947;52.276;9.946;2023-12-20T02:52:27;6.10;99.90
5842;DHT22;2947;52.276;9.946;2023-12-20T02:54:53;6.00;99.90
5842;DHT22;2947;52.276;9.946;2023-12-20T02:57:19;6.00;99.90
5842;DHT22;2947;52.276;9.946;2023-12-20T02:59:44;6.00;99.90
5842;DHT22;2947;52.276;9.946;2023-12-20T03:02:10;6.00;99.90
5842;DHT22;2947;52.276;9.946;2023-12-20T03:04:36;5.90;99.90
5842;DHT22;2947;52.276;9.946;2023-12-20T03:07:01;5.90;99.90
5842;DHT22;2947;52.276;9.946;2023-12-20T03:09:27;6.40;99.90
5842;DHT22;2947;52.276;9.946;2023-12-20T03:11:53;5.90;99.90
5842;DHT22;2947;52.276;9.946;2023-12-20T03:14:18;5.90;99.90
5842;DHT22;2947;52.276;9.946;2023-12-20T03:16:49;5.80;99.90
5842;DHT22;2947;52.276;9.946;2023-12-20T03:19:17;5.80;99.90
5842;DHT22;2947;52.276;9.946;2023-12-20T03:21:43;5.80;99.90
5842;DHT22;2947;52.276;9.946;2023-12-20T03:24:09;5.80;99.90
5842;DHT22;2947;52.276;9.946;2023-12-20T03:26:35;5.80;99.90
5842;DHT22;2947;52.276;9.946;2023-12-20T03:29:00;5.70;99.90
5842;DHT22;2947;52.276;9.946;2023-12-20T03:31:26;5.70;99.90
5842;DHT22;2947;52.276;9.946;2023-12-20T03:33:52;5.70;99.90
5842;DHT22;2947;52.276;9.946;2023-12-20T03:36:19;5.70;99.90
5842;DHT22;2947;52.276;9.946;2023-12-20T03:38:45;5.70;99.90
5842;DHT22;2947;52.276;9.946;2023-12-20T03:41:11;5.70;99.90
5842;DHT22;2947;52.276;9.946;2023-12-20T03:43:37;5.60;99.90
5842;DHT22;2947;52.276;9.946;2023-12-20T03:46:03;5.60;99.90
5842;DHT22;2947;52.276;9.946;2023-12-20T03:48:30;5.60;99.90
5842;DHT22;2947;52.276;9.946;2023-12-20T03:50:57;5.60;99.90
5842;DHT22;2947;52.276;9.946;2023-12-20T03:53:22;5.60;99.90
5842;DHT22;2947;52.276;9.946;2023-12-20T03:55:48;5.50;99.90
5842;DHT22;2947;52.276;9.946;2023-12-20T03:58:14;5.60;99.90
5842;DHT22;2947;52.276;9.946;2023-12-20T04:00:39;5.50;99.90
5842;DHT22;2947;52.276;9.946;2023-12-20T04:03:05;5.60;99.90
5842;DHT22;2947;52.276;9.946;2023-12-20T04:05:31;5.50;99.90
5842;DHT22;2947;52.276;9.946;2023-12-20T04:07:57;5.60;99.90
5842;DHT22;2947;52.276;9.946;2023-12-20T04:10:23;5.60;99.90
5842;DHT22;2947;52.276;9.946;2023-12-20T04:12:48;5.60;99.90
5842;DHT22;2947;52.276;9.946;2023-12-20T04:15:14;5.60;99.90
5842;DHT22;2947;52.276;9.946;2023-12-20T04:17:40;5.60;99.90
5842;DHT22;2947;52.276;9.946;2023-12-20T04:20:06;5.60;99.90
5842;DHT22;2947;52.276;9.946;2023-12-20T04:22:32;4.50;99.90
5842;DHT22;2947;52.276;9.946;2023-12-20T04:24:58;5.60;99.90
5842;DHT22;2947;52.276;9.946;2023-12-20T04:27:24;5.70;99.90
5842;DHT22;2947;52.276;9.946;2023-12-20T04:29:49;5.70;99.90
5842;DHT22;2947;52.276;9.946;2023-12-20T04:32:15;5.70;99.90
5842;DHT22;2947;52.276;9.946;2023-12-20T04:34:40;5.70;99.90
5842;DHT22;2947;52.276;9.946;2023-12-20T04:37:06;5.80;99.90
5842;DHT22;2947;52.276;9.946;2023-12-20T04:39:32;5.80;99.90
5842;DHT22;2947;52.276;9.946;2023-12-20T04:41:58;5.50;99.90
5842;DHT22;2947;52.276;9.946;2023-12-20T04:44:24;5.80;99.90
5842;DHT22;2947;52.276;9.946;2023-12-20T04:46:50;5.90;99.90
5842;DHT22;2947;52.276;9.946;2023-12-20T04:49:15;5.90;99.90
5842;DHT22;2947;52.276;9.946;2023-12-20T04:51:41;5.90;99.90
5842;DHT22;2947;52.276;9.946;2023-12-20T04:54:06;6.30;99.90
5842;DHT22;2947;52.276;9.946;2023-12-20T04:56:32;5.90;99.90
5842;DHT22;2947;52.276;9.946;2023-12-20T04:58:58;5.90;99.90
5842;DHT22;2947;52.276;9.946;2023-12-20T05:01:24;5.90;99.90
5842;DHT22;2947;52.276;9.946;2023-12-20T05:03:49;5.90;99.90
5842;DHT22;2947;52.276;9.946;2023-12-20T05:06:15;6.00;99.90
5842;DHT22;2947;52.276;9.946;2023-12-20T05:08:41;6.00;99.90
5842;DHT22;2947;52.276;9.946;2023-12-20T05:11:06;6.00;99.90
5842;DHT22;2947;52.276;9.946;2023-12-20T05:13:32;6.00;99.90
5842;DHT22;2947;52.276;9.946;2023-12-20T05:15:58;6.00;99.90
5842;DHT22;2947;52.276;9.946;2023-12-20T05:18:23;6.00;99.90
5842;DHT22;2947;52.276;9.946;2023-12-20T05:20:50;6.00;99.90
5842;DHT22;2947;52.276;9.946;2023-12-20T05:23:16;6.00;99.90
5842;DHT22;2947;52.276;9.946;2023-12-20T05:25:42;6.00;99.90
5842;DHT22;2947;52.276;9.946;2023-12-20T05:28:08;6.10;99.90
5842;DHT22;2947;52.276;9.946;2023-12-20T05:30:34;6.10;99.90
5842;DHT22;2947;52.276;9.946;2023-12-20T05:33:00;6.10;99.90
5842;DHT22;2947;52.276;9.946;2023-12-20T05:35:26;6.10;99.90
5842;DHT22;2947;52.276;9.946;2023-12-20T05:37:51;6.10;99.90
5842;DHT22;2947;52.276;9.946;2023-12-20T05:40:17;6.10;99.90
5842;DHT22;2947;52.276;9.946;2023-12-20T05:42:43;6.50;99.90
5842;DHT22;2947;52.276;9.946;2023-12-20T05:45:09;6.10;99.90
5842;DHT22;2947;52.276;9.946;2023-12-20T05:47:36;6.10;99.90
5842;DHT22;2947;52.276;9.946;2023-12-20T05:50:02;6.20;99.90
5842;DHT22;2947;52.276;9.946;2023-12-20T05:52:29;6.10;99.90
5842;DHT22;2947;52.276;9.946;2023-12-20T05:54:55;6.20;99.90
5842;DHT22;2947;52.276;9.946;2023-12-20T05:57:23;6.20;99.90
5842;DHT22;2947;52.276;9.946;2023-12-20T05:59:49;5.50;99.90
5842;DHT22;2947;52.276;9.946;2023-12-20T06:02:14;6.20;99.90
5842;DHT22;2947;52.276;9.946;2023-12-20T06:04:42;6.20;99.90
5842;DHT22;2947;52.276;9.946;2023-12-20T06:07:11;6.20;99.90
5842;DHT22;2947;52.276;9.946;2023-12-20T06:09:37;6.20;99.90
5842;DHT22;2947;52.276;9.946;2023-12-20T06:12:05;6.30;99.90
5842;DHT22;2947;52.276;9.946;2023-12-20T06:14:32;6.20;99.90
5842;DHT22;2947;52.276;9.946;2023-12-20T06:16:58;6.20;99.90
5842;DHT22;2947;52.276;9.946;2023-12-20T06:19:23;6.20;99.90
5842;DHT22;2947;52.276;9.946;2023-12-20T06:21:49;6.20;99.90
5842;DHT22;2947;52.276;9.946;2023-12-20T06:24:15;6.20;99.90
5842;DHT22;2947;52.276;9.946;2023-12-20T06:26:40;6.20;99.90
5842;DHT22;2947;52.276;9.946;2023-12-20T06:29:06;6.20;99.90
5842;DHT22;2947;52.276;9.946;2023-12-20T06:31:32;6.20;99.90
5842;DHT22;2947;52.276;9.946;2023-12-20T06:33:58;7.00;99.90
5842;DHT22;2947;52.276;9.946;2023-12-20T06:36:28;6.20;99.90
5842;DHT22;2947;52.276;9.946;2023-12-20T06:38:54;6.10;99.90
5842;DHT22;2947;52.276;9.946;2023-12-20T06:41:19;6.10;99.90
5842;DHT22;2947;52.276;9.946;2023-12-20T06:43:45;6.10;99.90
5842;DHT22;2947;52.276;9.946;2023-12-20T06:46:11;6.20;99.90
5842;DHT22;2947;52.276;9.946;2023-12-20T06:48:38;6.20;99.90
5842;DHT22;2947;52.276;9.946;2023-12-20T06:51:05;6.20;99.90
5842;DHT22;2947;52.276;9.946;2023-12-20T06:53:31;6.20;99.90
5842;DHT22;2947;52.276;9.946;2023-12-20T06:55:56;6.20;99.90
5842;DHT22;2947;52.276;9.946;2023-12-20T06:58:23;6.20;99.90
5842;DHT22;2947;52.276;9.946;2023-12-20T07:00:49;6.20;99.90
5842;DHT22;2947;52.276;9.946;2023-12-20T07:03:15;6.20;99.90
5842;DHT22;2947;52.276;9.946;2023-12-20T07:05:41;6.20;99.90
5842;DHT22;2947;52.276;9.946;2023-12-20T07:08:07;6.20;99.90
5842;DHT22;2947;52.276;9.946;2023-12-20T07:10:33;6.20;99.90
5842;DHT22;2947;52.276;9.946;2023-12-20T07:12:58;6.20;99.90
5842;DHT22;2947;52.276;9.946;2023-12-20T07:15:24;6.10;99.90
5842;DHT22;2947;52.276;9.946;2023-12-20T07:17:50;6.10;99.90
5842;DHT22;2947;52.276;9.946;2023-12-20T07:20:15;4.60;99.90
5842;DHT22;2947;52.276;9.946;2023-12-20T07:22:41;6.10;99.90
5842;DHT22;2947;52.276;9.946;2023-12-20T07:25:07;6.10;99.90
5842;DHT22;2947;52.276;9.946;2023-12-20T07:27:34;6.10;99.90
5842;DHT22;2947;52.276;9.946;2023-12-20T07:30:00;6.60;99.90
5842;DHT22;2947;52.276;9.946;2023-12-20T07:32:26;6.10;99.90
5842;DHT22;2947;52.276;9.946;2023-12-20T07:34:52;6.10;99.90
5842;DHT22;2947;52.276;9.946;2023-12-20T07:37:19;6.10;99.90
5842;DHT22;2947;52.276;9.946;2023-12-20T07:39:44;5.90;99.90
5842;DHT22;2947;52.276;9.946;2023-12-20T07:42:10;7.40;99.90
5842;DHT22;2947;52.276;9.946;2023-12-20T07:44:36;6.10;99.90
5842;DHT22;2947;52.276;9.946;2023-12-20T07:47:02;6.10;99.90
5842;DHT22;2947;52.276;9.946;2023-12-20T07:49:28;6.10;99.90
5842;DHT22;2947;52.276;9.946;2023-12-20T07:51:53;6.10;99.90
5842;DHT22;2947;52.276;9.946;2023-12-20T07:54:19;7.70;99.90
5842;DHT22;2947;52.276;9.946;2023-12-20T07:56:46;6.10;99.90
5842;DHT22;2947;52.276;9.946;2023-12-20T07:59:12;6.10;99.90
5842;DHT22;2947;52.276;9.946;2023-12-20T08:01:37;6.10;99.90
5842;DHT22;2947;52.276;9.946;2023-12-20T08:04:03;6.10;99.90
5842;DHT22;2947;52.276;9.946;2023-12-20T08:06:29;6.10;99.90
5842;DHT22;2947;52.276;9.946;2023-12-20T08:08:55;6.20;99.90
5842;DHT22;2947;52.276;9.946;2023-12-20T08:11:21;6.20;99.90
5842;DHT22;2947;52.276;9.946;2023-12-20T08:13:46;6.10;99.90
5842;DHT22;2947;52.276;9.946;2023-12-20T08:16:12;6.20;99.90
5842;DHT22;2947;52.276;9.946;2023-12-20T08:18:39;7.20;99.90
5842;DHT22;2947;52.276;9.946;2023-12-20T08:21:05;6.20;99.90
5842;DHT22;2947;52.276;9.946;2023-12-20T08:23:33;6.20;99.90
5842;DHT22;2947;52.276;9.946;2023-12-20T08:26:09;6.20;99.90
5842;DHT22;2947;52.276;9.946;2023-12-20T08:28:36;6.30;99.90
5842;DHT22;2947;52.276;9.946;2023-12-20T08:31:03;6.20;99.90
5842;DHT22;2947;52.276;9.946;2023-12-20T08:33:29;6.20;99.90
5842;DHT22;2947;52.276;9.946;2023-12-20T08:35:55;6.20;99.90
5842;DHT22;2947;52.276;9.946;2023-12-20T08:38:20;6.20;99.90
5842;DHT22;2947;52.276;9.946;2023-12-20T08:40:46;6.30;99.90
5842;DHT22;2947;52.276;9.946;2023-12-20T08:43:12;8.40;99.90
5842;DHT22;2947;52.276;9.946;2023-12-20T08:45:38;6.30;99.90
5842;DHT22;2947;52.276;9.946;2023-12-20T08:48:04;6.30;99.90
5842;DHT22;2947;52.276;9.946;2023-12-20T08:50:30;6.30;99.90
5842;DHT22;2947;52.276;9.946;2023-12-20T08:52:56;6.40;99.90
5842;DHT22;2947;52.276;9.946;2023-12-20T08:55:22;6.40;99.90
5842;DHT22;2947;52.276;9.946;2023-12-20T08:57:47;6.40;99.90
5842;DHT22;2947;52.276;9.946;2023-12-20T09:00:14;6.40;99.90
5842;DHT22;2947;52.276;9.946;2023-12-20T09:02:41;6.40;99.90
5842;DHT22;2947;52.276;9.946;2023-12-20T09:05:08;6.50;99.90
5842;DHT22;2947;52.276;9.946;2023-12-20T09:07:34;6.50;99.90
5842;DHT22;2947;52.276;9.946;2023-12-20T09:10:00;6.40;99.90
5842;DHT22;2947;52.276;9.946;2023-12-20T09:12:26;6.50;99.90
5842;DHT22;2947;52.276;9.946;2023-12-20T09:14:52;6.50;99.90
5842;DHT22;2947;52.276;9.946;2023-12-20T09:17:19;6.50;99.90
5842;DHT22;2947;52.276;9.946;2023-12-20T09:19:45;6.50;99.90
5842;DHT22;2947;52.276;9.946;2023-12-20T09:22:11;6.50;99.90
5842;DHT22;2947;52.276;9.946;2023-12-20T09:24:37;6.60;99.90
5842;DHT22;2947;52.276;9.946;2023-12-20T09:27:04;6.50;99.90
5842;DHT22;2947;52.276;9.946;2023-12-20T09:29:31;6.60;99.90
5842;DHT22;2947;52.276;9.946;2023-12-20T09:31:57;6.60;99.90
5842;DHT22;2947;52.276;9.946;2023-12-20T09:34:23;6.60;99.90
5842;DHT22;2947;52.276;9.946;2023-12-20T09:36:49;6.70;99.90
5842;DHT22;2947;52.276;9.946;2023-12-20T09:39:16;6.70;99.90
5842;DHT22;2947;52.276;9.946;2023-12-20T09:42:06;6.70;99.90
5842;DHT22;2947;52.276;9.946;2023-12-20T09:44:33;6.80;99.90
5842;DHT22;2947;52.276;9.946;2023-12-20T09:47:06;6.80;99.90
5842;DHT22;2947;52.276;9.946;2023-12-20T09:49:33;6.90;99.90
5842;DHT22;2947;52.276;9.946;2023-12-20T09:52:00;7.00;99.90
5842;DHT22;2947;52.276;9.946;2023-12-20T09:54:28;7.00;99.90
5842;DHT22;2947;52.276;9.946;2023-12-20T09:56:55;7.00;99.90
5842;DHT22;2947;52.276;9.946;2023-12-20T09:59:20;7.00;99.90
5842;DHT22;2947;52.276;9.946;2023-12-20T10:01:47;7.00;99.90
5842;DHT22;2947;52.276;9.946;2023-12-20T10:04:13;7.00;99.90
5842;DHT22;2947;52.276;9.946;2023-12-20T10:06:43;7.00;99.90
5842;DHT22;2947;52.276;9.946;2023-12-20T10:09:10;6.90;99.90
5842;DHT22;2947;52.276;9.946;2023-12-20T10:11:37;7.00;99.90
5842;DHT22;2947;52.276;9.946;2023-12-20T10:14:05;7.00;99.90
5842;DHT22;2947;52.276;9.946;2023-12-20T10:16:32;7.50;99.90
5842;DHT22;2947;52.276;9.946;2023-12-20T10:19:00;7.00;99.90
5842;DHT22;2947;52.276;9.946;2023-12-20T10:21:29;7.10;99.90
5842;DHT22;2947;52.276;9.946;2023-12-20T10:23:56;7.00;99.90
5842;DHT22;2947;52.276;9.946;2023-12-20T10:26:26;7.00;99.90
5842;DHT22;2947;52.276;9.946;2023-12-20T10:29:00;7.00;99.90
5842;DHT22;2947;52.276;9.946;2023-12-20T10:31:33;7.10;99.90
5842;DHT22;2947;52.276;9.946;2023-12-20T10:34:00;7.10;99.90
5842;DHT22;2947;52.276;9.946;2023-12-20T10:36:29;6.60;99.90
5842;DHT22;2947;52.276;9.946;2023-12-20T10:38:59;7.10;99.90
5842;DHT22;2947;52.276;9.946;2023-12-20T10:41:27;7.10;99.90
5842;DHT22;2947;52.276;9.946;2023-12-20T10:44:02;7.10;99.90
5842;DHT22;2947;52.276;9.946;2023-12-20T10:46:33;7.10;99.90
5842;DHT22;2947;52.276;9.946;2023-12-20T10:49:03;7.10;99.90
5842;DHT22;2947;52.276;9.946;2023-12-20T10:51:31;7.10;99.90
5842;DHT22;2947;52.276;9.946;2023-12-20T10:53:57;7.00;99.90
5842;DHT22;2947;52.276;9.946;2023-12-20T10:56:23;7.10;99.90
5842;DHT22;2947;52.276;9.946;2023-12-20T10:58:49;7.10;99.90
5842;DHT22;2947;52.276;9.946;2023-12-20T11:01:17;7.10;99.90
5842;DHT22;2947;52.276;9.946;2023-12-20T11:03:50;7.10;99.90
5842;DHT22;2947;52.276;9.946;2023-12-20T11:09:16;7.10;99.90
5842;DHT22;2947;52.276;9.946;2023-12-20T11:12:16;7.10;99.90
5842;DHT22;2947;52.276;9.946;2023-12-20T11:14:50;7.10;99.90
5842;DHT22;2947;52.276;9.946;2023-12-20T11:17:18;7.10;99.90
5842;DHT22;2947;52.276;9.946;2023-12-20T11:22:22;7.10;99.90
5842;DHT22;2947;52.276;9.946;2023-12-20T11:24:51;7.10;99.90
5842;DHT22;2947;52.276;9.946;2023-12-20T11:27:18;7.10;99.90
5842;DHT22;2947;52.276;9.946;2023-12-20T11:29:52;7.10;99.90
5842;DHT22;2947;52.276;9.946;2023-12-20T11:32:28;7.10;99.90
5842;DHT22;2947;52.276;9.946;2023-12-20T11:37:39;7.00;99.90
5842;DHT22;2947;52.276;9.946;2023-12-20T11:40:11;7.00;99.90
5842;DHT22;2947;52.276;9.946;2023-12-20T11:42:49;7.10;99.90
5842;DHT22;2947;52.276;9.946;2023-12-20T11:45:21;7.00;99.90
5842;DHT22;2947;52.276;9.946;2023-12-20T11:47:49;7.10;99.90
5842;DHT22;2947;52.276;9.946;2023-12-20T11:50:16;7.10;99.90
5842;DHT22;2947;52.276;9.946;2023-12-20T11:52:42;7.00;99.90
5842;DHT22;2947;52.276;9.946;2023-12-20T11:55:08;7.00;99.90
5842;DHT22;2947;52.276;9.946;2023-12-20T11:57:36;7.00;99.90
5842;DHT22;2947;52.276;9.946;2023-12-20T12:00:02;7.00;99.90
5842;DHT22;2947;52.276;9.946;2023-12-20T12:02:32;7.00;99.90
5842;DHT22;2947;52.276;9.946;2023-12-20T12:04:59;7.00;99.90
5842;DHT22;2947;52.276;9.946;2023-12-20T12:07:25;6.90;99.90
5842;DHT22;2947;52.276;9.946;2023-12-20T12:09:51;6.90;99.90
5842;DHT22;2947;52.276;9.946;2023-12-20T12:12:23;7.90;99.90
5842;DHT22;2947;52.276;9.946;2023-12-20T12:15:01;6.40;99.90
5842;DHT22;2947;52.276;9.946;2023-12-20T12:17:28;6.40;99.90
5842;DHT22;2947;52.276;9.946;2023-12-20T12:20:02;6.30;99.90
5842;DHT22;2947;52.276;9.946;2023-12-20T12:22:31;6.30;99.90
5842;DHT22;2947;52.276;9.946;2023-12-20T12:24:59;6.30;99.90
5842;DHT22;2947;52.276;9.946;2023-12-20T12:27:36;6.20;99.90
5842;DHT22;2947;52.276;9.946;2023-12-20T12:30:05;6.10;99.90
5842;DHT22;2947;52.276;9.946;2023-12-20T12:32:35;7.10;99.90
5842;DHT22;2947;52.276;9.946;2023-12-20T12:35:08;6.00;99.90
5842;DHT22;2947;52.276;9.946;2023-12-20T12:37:38;5.90;99.90
5842;DHT22;2947;52.276;9.946;2023-12-20T12:40:12;5.90;99.90
5842;DHT22;2947;52.276;9.946;2023-12-20T12:42:40;5.90;99.90
5842;DHT22;2947;52.276;9.946;2023-12-20T12:45:07;5.90;99.90
5842;DHT22;2947;52.276;9.946;2023-12-20T12:47:34;5.90;99.90
5842;DHT22;2947;52.276;9.946;2023-12-20T12:50:00;5.80;99.90
5842;DHT22;2947;52.276;9.946;2023-12-20T12:52:26;5.80;99.90
5842;DHT22;2947;52.276;9.946;2023-12-20T12:54:52;5.70;99.90
5842;DHT22;2947;52.276;9.946;2023-12-20T12:57:18;5.70;99.90
5842;DHT22;2947;52.276;9.946;2023-12-20T12:59:45;5.70;99.90
5842;DHT22;2947;52.276;9.946;2023-12-20T13:02:15;5.70;99.90
5842;DHT22;2947;52.276;9.946;2023-12-20T13:04:41;5.70;99.90
5842;DHT22;2947;52.276;9.946;2023-12-20T13:07:07;5.70;99.90
5842;DHT22;2947;52.276;9.946;2023-12-20T13:09:36;5.70;99.90
5842;DHT22;2947;52.276;9.946;2023-12-20T13:12:02;5.70;99.90
5842;DHT22;2947;52.276;9.946;2023-12-20T13:14:31;5.70;99.90
5842;DHT22;2947;52.276;9.946;2023-12-20T13:16:58;5.70;99.90
5842;DHT22;2947;52.276;9.946;2023-12-20T13:19:24;5.70;99.90
5842;DHT22;2947;52.276;9.946;2023-12-20T13:21:50;5.70;99.90
5842;DHT22;2947;52.276;9.946;2023-12-20T13:24:15;5.80;99.90
5842;DHT22;2947;52.276;9.946;2023-12-20T13:26:41;5.80;99.90
5842;DHT22;2947;52.276;9.946;2023-12-20T13:29:07;5.90;99.90
5842;DHT22;2947;52.276;9.946;2023-12-20T13:31:32;5.90;99.90
5842;DHT22;2947;52.276;9.946;2023-12-20T13:33:58;6.00;99.90
5842;DHT22;2947;52.276;9.946;2023-12-20T13:36:24;6.00;99.90
5842;DHT22;2947;52.276;9.946;2023-12-20T13:38:49;6.70;99.90
5842;DHT22;2947;52.276;9.946;2023-12-20T13:41:15;6.00;99.90
5842;DHT22;2947;52.276;9.946;2023-12-20T13:43:41;6.10;99.90
5842;DHT22;2947;52.276;9.946;2023-12-20T13:46:08;6.10;99.90
5842;DHT22;2947;52.276;9.946;2023-12-20T13:48:34;6.20;99.90
5842;DHT22;2947;52.276;9.946;2023-12-20T13:51:00;6.20;99.90
5842;DHT22;2947;52.276;9.946;2023-12-20T13:53:28;6.30;99.90
5842;DHT22;2947;52.276;9.946;2023-12-20T13:55:54;5.60;99.90
5842;DHT22;2947;52.276;9.946;2023-12-20T13:58:19;6.30;99.90
5842;DHT22;2947;52.276;9.946;2023-12-20T14:00:45;6.30;99.90
5842;DHT22;2947;52.276;9.946;2023-12-20T14:03:11;6.30;99.90
5842;DHT22;2947;52.276;9.946;2023-12-20T14:05:37;6.30;99.90
5842;DHT22;2947;52.276;9.946;2023-12-20T14:08:04;6.30;99.90
5842;DHT22;2947;52.276;9.946;2023-12-20T14:10:30;6.40;99.90
5842;DHT22;2947;52.276;9.946;2023-12-20T14:12:56;6.40;99.90
5842;DHT22;2947;52.276;9.946;2023-12-20T14:15:22;6.40;99.90
5842;DHT22;2947;52.276;9.946;2023-12-20T14:17:50;6.40;99.90
5842;DHT22;2947;52.276;9.946;2023-12-20T14:20:16;6.40;99.90
5842;DHT22;2947;52.276;9.946;2023-12-20T14:22:43;6.40;99.90
5842;DHT22;2947;52.276;9.946;2023-12-20T14:25:11;6.40;99.90
5842;DHT22;2947;52.276;9.946;2023-12-20T14:27:38;6.40;99.90
5842;DHT22;2947;52.276;9.946;2023-12-20T14:30:04;6.40;99.90
5842;DHT22;2947;52.276;9.946;2023-12-20T14:32:35;6.40;99.90
5842;DHT22;2947;52.276;9.946;2023-12-20T14:35:05;6.40;99.90
5842;DHT22;2947;52.276;9.946;2023-12-20T14:37:32;6.40;99.90
5842;DHT22;2947;52.276;9.946;2023-12-20T14:39:57;6.40;99.90
5842;DHT22;2947;52.276;9.946;2023-12-20T14:42:23;6.50;99.90
5842;DHT22;2947;52.276;9.946;2023-12-20T14:44:49;6.50;99.90
5842;DHT22;2947;52.276;9.946;2023-12-20T14:47:15;6.50;99.90
5842;DHT22;2947;52.276;9.946;2023-12-20T14:49:41;6.40;99.90
5842;DHT22;2947;52.276;9.946;2023-12-20T14:52:08;6.40;99.90
5842;DHT22;2947;52.276;9.946;2023-12-20T14:54:37;6.40;99.90
5842;DHT22;2947;52.276;9.946;2023-12-20T14:57:03;6.50;99.90
5842;DHT22;2947;52.276;9.946;2023-12-20T14:59:33;6.40;99.90
5842;DHT22;2947;52.276;9.946;2023-12-20T15:01:59;6.40;99.90
5842;DHT22;2947;52.276;9.946;2023-12-20T15:04:25;6.50;99.90
5842;DHT22;2947;52.276;9.946;2023-12-20T15:06:54;6.40;99.90
5842;DHT22;2947;52.276;9.946;2023-12-20T15:09:20;6.40;99.90
5842;DHT22;2947;52.276;9.946;2023-12-20T15:11:46;6.40;99.90
5842;DHT22;2947;52.276;9.946;2023-12-20T15:14:12;6.40;99.90
5842;DHT22;2947;52.276;9.946;2023-12-20T15:16:43;6.50;99.90
5842;DHT22;2947;52.276;9.946;2023-12-20T15:19:09;6.40;99.90
5842;DHT22;2947;52.276;9.946;2023-12-20T15:21:35;6.40;99.90
5842;DHT22;2947;52.276;9.946;2023-12-20T15:24:07;6.40;99.90
5842;DHT22;2947;52.276;9.946;2023-12-20T15:26:40;6.40;99.90
5842;DHT22;2947;52.276;9.946;2023-12-20T15:29:08;6.40;99.90
5842;DHT22;2947;52.276;9.946;2023-12-20T15:31:36;6.30;99.90
5842;DHT22;2947;52.276;9.946;2023-12-20T15:34:02;6.40;99.90
5842;DHT22;2947;52.276;9.946;2023-12-20T15:36:28;6.40;99.90
5842;DHT22;2947;52.276;9.946;2023-12-20T15:38:55;6.40;99.90
5842;DHT22;2947;52.276;9.946;2023-12-20T15:41:21;6.40;99.90
5842;DHT22;2947;52.276;9.946;2023-12-20T15:43:48;6.40;99.90
5842;DHT22;2947;52.276;9.946;2023-12-20T15:46:15;6.40;98.50
5842;DHT22;2947;52.276;9.946;2023-12-20T15:48:41;6.40;99.90
5842;DHT22;2947;52.276;9.946;2023-12-20T15:51:08;6.40;99.90
5842;DHT22;2947;52.276;9.946;2023-12-20T15:53:35;6.40;99.90
5842;DHT22;2947;52.276;9.946;2023-12-20T15:56:02;6.40;99.90
5842;DHT22;2947;52.276;9.946;2023-12-20T15:58:31;6.40;99.90
5842;DHT22;2947;52.276;9.946;2023-12-20T16:00:59;6.40;59.80
5842;DHT22;2947;52.276;9.946;2023-12-20T16:03:25;6.30;39.50
5842;DHT22;2947;52.276;9.946;2023-12-20T16:05:51;6.30;41.70
5842;DHT22;2947;52.276;9.946;2023-12-20T16:08:18;6.30;91.70
5842;DHT22;2947;52.276;9.946;2023-12-20T16:10:44;6.20;91.00
5842;DHT22;2947;52.276;9.946;2023-12-20T16:13:09;6.20;99.90
5842;DHT22;2947;52.276;9.946;2023-12-20T16:15:35;6.20;99.90
5842;DHT22;2947;52.276;9.946;2023-12-20T16:18:01;6.10;99.90
5842;DHT22;2947;52.276;9.946;2023-12-20T16:20:26;6.10;99.90
5842;DHT22;2947;52.276;9.946;2023-12-20T16:22:52;6.00;99.90
5842;DHT22;2947;52.276;9.946;2023-12-20T16:25:18;6.00;99.90
5842;DHT22;2947;52.276;9.946;2023-12-20T16:27:43;5.90;99.90